createdAt,value
2023-01-20T00:01:13.017Z,69.88
2023-01-20T00:03:40.737Z,70.62
2023-01-20T00:06:08.827Z,70.16
2023-01-20T00:08:36.271Z,70.25
2023-01-20T00:11:07.369Z,69.31
2023-01-20T00:13:35.762Z,69.18
2023-01-20T00:16:04.238Z,69.67
2023-01-20T00:18:31.836Z,69.81
2023-01-20T00:21:05.983Z,70.10
2023-01-20T00:23:51.361Z,70.33
2023-01-20T00:26:20.123Z,70.08
2023-01-20T00:28:47.626Z,70.74
2023-01-20T00:31:24.620Z,69.81
2023-01-20T00:33:52.716Z,69.13
2023-01-20T00:36:20.596Z,69.05
2023-01-20T00:38:48.047Z,69.69
2023-01-20T00:41:15.351Z,68.95
2023-01-20T00:43:42.755Z,68.73
2023-01-20T00:46:10.312Z,68.61
2023-01-20T00:48:38.036Z,68.63
2023-01-20T00:51:05.928Z,68.29
2023-01-20T00:53:33.314Z,68.41
2023-01-20T00:56:00.639Z,68.35
2023-01-20T00:58:28.059Z,68.00
2023-01-20T01:00:55.484Z,68.09
2023-01-20T01:03:23.021Z,67.61
2023-01-20T01:05:50.462Z,68.40
2023-01-20T01:08:17.817Z,68.19
2023-01-20T01:10:45.128Z,68.52
2023-01-20T01:13:12.557Z,68.30
2023-01-20T01:15:39.879Z,68.22
2023-01-20T01:18:07.187Z,68.73
2023-01-20T01:20:34.494Z,68.36
2023-01-20T01:23:01.840Z,68.04
2023-01-20T01:25:29.079Z,68.78
2023-01-20T01:27:56.366Z,68.90
2023-01-20T01:30:23.639Z,68.92
2023-01-20T01:32:51.037Z,68.96
2023-01-20T01:35:18.283Z,69.07
2023-01-20T01:37:45.640Z,68.89
2023-01-20T01:40:12.945Z,68.96
2023-01-20T01:42:42.618Z,69.52
2023-01-20T01:45:13.874Z,69.54
2023-01-20T01:48:02.259Z,69.36
2023-01-20T01:50:39.297Z,69.03
2023-01-20T01:53:06.739Z,69.77
2023-01-20T01:55:35.596Z,69.49
2023-01-20T01:58:02.922Z,69.48
2023-01-20T02:00:30.226Z,69.84
2023-01-20T02:02:57.520Z,69.73
2023-01-20T02:05:25.200Z,70.23
2023-01-20T02:07:52.496Z,69.85
2023-01-20T02:10:19.786Z,69.85
2023-01-20T02:12:49.533Z,69.42
2023-01-20T02:15:17.627Z,70.04
2023-01-20T02:17:44.856Z,69.73
2023-01-20T02:20:36.873Z,69.97
2023-01-20T02:23:22.672Z,69.70
2023-01-20T02:26:17.840Z,69.58
2023-01-20T02:29:03.257Z,69.23
2023-01-20T02:32:08.259Z,69.82
2023-01-20T02:34:40.251Z,69.89
2023-01-20T02:37:30.707Z,69.59
2023-01-20T02:40:11.538Z,70.50
2023-01-20T02:42:44.661Z,70.19
2023-01-20T02:45:35.622Z,69.77
2023-01-20T02:48:23.125Z,69.22
2023-01-20T02:50:53.525Z,69.27
2023-01-20T02:53:20.882Z,69.30
2023-01-20T02:55:48.719Z,69.17
2023-01-20T02:58:30.854Z,69.71
2023-01-20T03:01:13.352Z,69.40
2023-01-20T03:03:42.461Z,69.76
2023-01-20T03:06:14.907Z,69.69
2023-01-20T03:08:42.248Z,69.47
2023-01-20T03:11:09.819Z,69.64
2023-01-20T03:13:50.954Z,69.18
2023-01-20T03:16:19.348Z,69.89
2023-01-20T03:18:46.691Z,69.14
2023-01-20T03:21:14.015Z,68.78
2023-01-20T03:23:43.356Z,69.06
2023-01-20T03:26:12.230Z,69.11
2023-01-20T03:28:41.175Z,68.83
2023-01-20T03:31:31.375Z,69.74
2023-01-20T03:34:00.515Z,69.87
2023-01-20T03:36:29.124Z,69.50
2023-01-20T03:38:56.618Z,69.92
2023-01-20T03:41:36.113Z,70.47
2023-01-20T03:44:09.430Z,69.26
2023-01-20T03:47:00.709Z,70.04
2023-01-20T03:49:48.430Z,69.55
2023-01-20T03:52:47.756Z,69.27
2023-01-20T03:55:23.197Z,69.64
2023-01-20T03:57:57.477Z,69.45
2023-01-20T04:00:26.177Z,69.40
2023-01-20T04:02:57.122Z,69.65
2023-01-20T04:05:24.402Z,70.17
2023-01-20T04:07:51.728Z,70.15
2023-01-20T04:10:19.063Z,70.32
2023-01-20T04:12:46.403Z,69.97
2023-01-20T04:15:13.830Z,69.78
2023-01-20T04:17:41.406Z,68.95
2023-01-20T04:20:10.545Z,69.34
2023-01-20T04:22:54.320Z,69.68
2023-01-20T04:25:30.051Z,70.28
2023-01-20T04:27:57.428Z,69.88
2023-01-20T04:30:24.750Z,69.15
2023-01-20T04:32:52.136Z,68.80
2023-01-20T04:35:19.929Z,69.35
2023-01-20T04:37:47.288Z,68.68
2023-01-20T04:40:14.700Z,69.38
2023-01-20T04:42:42.132Z,69.22
2023-01-20T04:45:10.643Z,69.43
2023-01-20T04:47:37.974Z,69.29
2023-01-20T04:50:05.636Z,69.62
2023-01-20T04:52:33.099Z,69.23
2023-01-20T04:55:00.351Z,69.67
2023-01-20T04:57:27.674Z,69.32
2023-01-20T04:59:54.901Z,69.70
2023-01-20T05:02:22.402Z,69.84
2023-01-20T05:04:49.725Z,70.10
2023-01-20T05:07:17.166Z,69.86
2023-01-20T05:09:44.518Z,69.70
2023-01-20T05:12:11.896Z,69.13
2023-01-20T05:14:39.163Z,69.40
2023-01-20T05:17:06.602Z,69.24
2023-01-20T05:19:33.880Z,69.57
2023-01-20T05:22:01.206Z,68.99
2023-01-20T05:24:28.574Z,68.84
2023-01-20T05:26:55.977Z,70.08
2023-01-20T05:29:23.277Z,69.59
2023-01-20T05:31:50.710Z,69.11
2023-01-20T05:34:18.027Z,69.04
2023-01-20T05:36:45.372Z,69.70
2023-01-20T05:39:12.690Z,69.32
2023-01-20T05:41:39.965Z,68.89
2023-01-20T05:44:07.262Z,69.31
2023-01-20T05:46:34.684Z,68.12
2023-01-20T05:49:03.212Z,68.85
2023-01-20T05:51:30.572Z,69.03
2023-01-20T05:53:57.946Z,69.51
2023-01-20T05:56:25.319Z,68.93
2023-01-20T05:58:58.479Z,68.64
2023-01-20T06:01:25.881Z,69.32
2023-01-20T06:03:53.423Z,69.33
2023-01-20T06:06:20.966Z,69.07
2023-01-20T06:08:49.688Z,69.14
2023-01-20T06:11:18.132Z,68.86
2023-01-20T06:13:48.801Z,68.46
2023-01-20T06:16:19.588Z,68.62
2023-01-20T06:18:46.931Z,68.56
2023-01-20T06:21:14.277Z,67.81
2023-01-20T06:23:41.997Z,67.81
2023-01-20T06:26:11.748Z,68.06
2023-01-20T06:28:39.239Z,68.05
2023-01-20T06:31:13.844Z,67.76
2023-01-20T06:33:41.445Z,68.08
2023-01-20T06:36:09.136Z,67.31
2023-01-20T06:38:37.070Z,67.40
2023-01-20T06:41:06.922Z,67.41
2023-01-20T06:43:35.209Z,67.04
2023-01-20T06:46:07.072Z,67.15
2023-01-20T06:48:40.150Z,67.50
2023-01-20T06:51:18.573Z,66.93
2023-01-20T06:53:46.634Z,67.23
2023-01-20T06:56:15.567Z,66.61
2023-01-20T06:58:45.762Z,66.65
2023-01-20T07:01:14.762Z,66.78
2023-01-20T07:03:43.786Z,66.99
2023-01-20T07:06:33.716Z,65.96
2023-01-20T07:09:01.231Z,66.53
2023-01-20T07:11:29.149Z,66.56
2023-01-20T07:13:56.599Z,66.25
2023-01-20T07:16:24.738Z,65.71
2023-01-20T07:18:52.953Z,66.08
2023-01-20T07:21:20.564Z,65.79
2023-01-20T07:23:51.974Z,65.57
2023-01-20T07:26:21.812Z,65.23
2023-01-20T07:28:49.327Z,65.38
2023-01-20T07:31:21.762Z,65.10
2023-01-20T07:33:49.481Z,65.02
2023-01-20T07:36:17.105Z,64.94
2023-01-20T07:38:47.535Z,64.79
2023-01-20T07:41:18.293Z,64.76
2023-01-20T07:43:46.822Z,64.66
2023-01-20T07:46:20.189Z,64.00
2023-01-20T07:48:54.651Z,63.78
2023-01-20T07:51:47.302Z,63.31
2023-01-20T07:54:32.682Z,63.54
2023-01-20T07:57:00.269Z,63.43
2023-01-20T07:59:31.162Z,63.81
2023-01-20T08:01:59.004Z,63.33
2023-01-20T08:04:28.486Z,62.75
2023-01-20T08:06:59.452Z,63.03
2023-01-20T08:09:27.769Z,62.73
2023-01-20T08:11:57.682Z,63.13
2023-01-20T08:14:26.258Z,62.92
2023-01-20T08:16:58.087Z,63.15
2023-01-20T08:19:30.640Z,62.58
2023-01-20T08:21:58.450Z,61.82
2023-01-20T08:24:32.316Z,61.11
2023-01-20T08:27:00.179Z,61.65
2023-01-20T08:29:28.061Z,60.85
2023-01-20T08:31:55.700Z,61.48
2023-01-20T08:34:23.352Z,61.37
2023-01-20T08:36:54.700Z,61.39
2023-01-20T08:39:28.279Z,60.45
2023-01-20T08:41:58.092Z,60.34
2023-01-20T08:44:28.271Z,60.55
2023-01-20T08:46:59.500Z,61.54
2023-01-20T08:49:27.004Z,61.19
2023-01-20T08:51:57.612Z,61.34
2023-01-20T08:54:30.252Z,61.36
2023-01-20T08:56:57.734Z,61.25
2023-01-20T08:59:27.129Z,60.35
2023-01-20T09:01:57.726Z,60.79
2023-01-20T09:04:25.389Z,61.09
2023-01-20T09:06:54.441Z,60.95
2023-01-20T09:09:26.321Z,61.16
2023-01-20T09:11:55.082Z,60.74
2023-01-20T09:14:24.460Z,61.14
2023-01-20T09:16:54.868Z,60.62
2023-01-20T09:19:25.436Z,60.65
2023-01-20T09:21:52.914Z,60.54
2023-01-20T09:24:20.606Z,60.97
2023-01-20T09:26:49.626Z,60.98
2023-01-20T09:29:19.638Z,60.64
2023-01-20T09:31:58.498Z,60.58
2023-01-20T09:34:40.352Z,60.09
2023-01-20T09:37:34.489Z,59.67
2023-01-20T09:40:20.874Z,59.39
2023-01-20T09:43:25.521Z,60.19
2023-01-20T09:45:56.492Z,59.78
2023-01-20T09:48:55.293Z,60.43
2023-01-20T09:51:44.995Z,59.89
2023-01-20T09:54:19.085Z,60.29
2023-01-20T09:56:47.638Z,60.11
2023-01-20T09:59:26.169Z,60.37
2023-01-20T10:02:01.295Z,60.28
2023-01-20T10:04:42.061Z,60.49
2023-01-20T10:07:34.100Z,60.18
2023-01-20T10:10:10.581Z,59.48
2023-01-20T10:12:44.684Z,60.35
2023-01-20T10:15:17.727Z,60.24
2023-01-20T10:17:45.744Z,60.41
2023-01-20T10:20:37.151Z,60.44
2023-01-20T10:23:20.457Z,59.53
2023-01-20T10:25:50.560Z,59.99
2023-01-20T10:28:39.577Z,59.81
2023-01-20T10:31:07.957Z,59.59
2023-01-20T10:33:53.349Z,59.83
2023-01-20T10:36:32.094Z,59.54
2023-01-20T10:39:05.662Z,58.88
2023-01-20T10:41:42.812Z,59.61
2023-01-20T10:44:12.863Z,59.15
2023-01-20T10:47:13.616Z,58.77
2023-01-20T10:50:18.855Z,59.68
2023-01-20T10:53:07.813Z,58.75
2023-01-20T10:55:50.300Z,58.33
2023-01-20T10:58:28.091Z,58.75
2023-01-20T11:00:55.956Z,57.81
2023-01-20T11:03:23.757Z,58.37
2023-01-20T11:05:51.891Z,58.16
2023-01-20T11:08:27.848Z,58.54
2023-01-20T11:10:57.985Z,58.55
2023-01-20T11:13:25.553Z,59.01
2023-01-20T11:16:01.703Z,59.21
2023-01-20T11:18:31.892Z,59.57
2023-01-20T11:21:06.313Z,58.92
2023-01-20T11:23:42.848Z,58.76
2023-01-20T11:26:31.382Z,58.79
2023-01-20T11:29:11.220Z,58.08
2023-01-20T11:31:40.112Z,57.76
2023-01-20T11:34:26.867Z,57.46
2023-01-20T11:37:03.450Z,57.64
2023-01-20T11:39:44.964Z,57.41
2023-01-20T11:42:22.525Z,57.44
2023-01-20T11:45:19.754Z,56.47
2023-01-20T11:48:02.191Z,56.08
2023-01-20T11:50:50.773Z,55.92
2023-01-20T11:53:26.816Z,56.36
2023-01-20T11:56:08.578Z,55.85
2023-01-20T11:58:51.794Z,56.88
2023-01-20T12:01:28.370Z,56.61
2023-01-20T12:04:19.809Z,55.64
2023-01-20T12:06:58.554Z,55.34
2023-01-20T12:09:35.718Z,55.28
2023-01-20T12:12:27.770Z,56.62
2023-01-20T12:15:00.444Z,56.34
2023-01-20T12:17:42.333Z,56.36
2023-01-20T12:20:29.262Z,55.80
2023-01-20T12:23:34.406Z,56.32
2023-01-20T12:26:02.782Z,56.22
2023-01-20T12:28:59.508Z,55.76
2023-01-20T12:31:27.366Z,56.18
2023-01-20T12:33:58.273Z,55.85
2023-01-20T12:36:41.323Z,56.29
2023-01-20T12:39:29.753Z,55.86
2023-01-20T12:42:21.040Z,55.58
2023-01-20T12:45:20.880Z,54.27
2023-01-20T12:48:07.144Z,54.71
2023-01-20T12:51:06.768Z,54.33
2023-01-20T12:53:50.653Z,55.25
2023-01-20T12:56:27.735Z,55.35
2023-01-20T12:59:01.388Z,55.60
2023-01-20T13:01:35.029Z,55.83
2023-01-20T13:04:14.961Z,56.45
2023-01-20T13:07:13.588Z,55.67
2023-01-20T13:09:40.926Z,55.04
2023-01-20T13:12:45.412Z,55.49
2023-01-20T13:15:33.317Z,55.26
2023-01-20T13:18:12.950Z,56.02
2023-01-20T13:20:41.234Z,55.89
2023-01-20T13:23:11.188Z,56.04
2023-01-20T13:25:38.603Z,56.43
2023-01-20T13:28:08.022Z,55.83
2023-01-20T13:30:48.099Z,56.06
2023-01-20T13:33:34.317Z,55.49
2023-01-20T13:36:13.290Z,56.83
2023-01-20T13:38:40.830Z,55.48
2023-01-20T13:41:08.791Z,55.84
2023-01-20T13:43:45.952Z,56.88
2023-01-20T13:46:17.150Z,56.28
2023-01-20T13:49:23.228Z,56.51
2023-01-20T13:51:50.939Z,57.55
2023-01-20T13:54:32.987Z,57.19
2023-01-20T13:57:23.400Z,57.38
2023-01-20T13:59:51.037Z,56.49
2023-01-20T14:02:22.466Z,57.40
2023-01-20T14:04:49.919Z,57.14
2023-01-20T14:07:28.369Z,57.71
2023-01-20T14:09:57.223Z,58.80
2023-01-20T14:12:24.798Z,57.68
2023-01-20T14:14:52.500Z,57.70
2023-01-20T14:17:23.589Z,56.73
2023-01-20T14:19:52.984Z,58.53
2023-01-20T14:22:28.077Z,56.68
2023-01-20T14:25:00.261Z,57.13
2023-01-20T14:27:32.447Z,57.39
2023-01-20T14:30:15.621Z,57.81
2023-01-20T14:32:43.258Z,57.12
2023-01-20T14:35:15.993Z,57.73
2023-01-20T14:37:43.494Z,57.20
2023-01-20T14:40:23.367Z,57.76
2023-01-20T14:43:00.322Z,57.18
2023-01-20T14:45:32.598Z,57.02
2023-01-20T14:48:01.020Z,57.55
2023-01-20T14:50:28.868Z,57.30
2023-01-20T14:52:56.425Z,57.53
2023-01-20T14:55:36.771Z,57.16
2023-01-20T14:58:08.557Z,57.91
2023-01-20T15:00:35.917Z,57.25
2023-01-20T15:03:15.814Z,57.82
2023-01-20T15:06:00.095Z,58.04
2023-01-20T15:09:04.486Z,57.74
2023-01-20T15:11:33.258Z,57.34
2023-01-20T15:14:01.093Z,57.78
2023-01-20T15:16:38.854Z,58.02
2023-01-20T15:19:20.009Z,57.69
2023-01-20T15:21:55.871Z,57.26
2023-01-20T15:24:24.018Z,57.98
2023-01-20T15:26:54.337Z,58.69
2023-01-20T15:29:29.227Z,57.84
2023-01-20T15:31:59.138Z,58.37
2023-01-20T15:34:26.601Z,58.50
2023-01-20T15:36:54.516Z,58.76
2023-01-20T15:39:23.218Z,58.80
2023-01-20T15:41:57.275Z,58.50
2023-01-20T15:44:25.449Z,58.70
2023-01-20T15:46:53.824Z,58.55
2023-01-20T15:49:22.858Z,58.61
2023-01-20T15:51:50.229Z,58.37
2023-01-20T15:54:17.938Z,58.62
2023-01-20T15:56:45.294Z,58.99
2023-01-20T15:59:16.290Z,59.26
2023-01-20T16:01:47.331Z,59.39
2023-01-20T16:04:15.258Z,59.74
2023-01-20T16:06:42.623Z,58.72
2023-01-20T16:09:16.094Z,59.04
2023-01-20T16:11:43.684Z,59.70
2023-01-20T16:14:11.025Z,58.91
2023-01-20T16:16:38.646Z,59.59
2023-01-20T16:19:06.830Z,59.19
2023-01-20T16:21:34.296Z,59.17
2023-01-20T16:24:01.635Z,58.82
2023-01-20T16:26:29.051Z,59.21
2023-01-20T16:28:57.297Z,59.03
2023-01-20T16:31:25.762Z,58.64
2023-01-20T16:33:53.433Z,57.92
2023-01-20T16:36:21.600Z,59.09
2023-01-20T16:38:49.491Z,58.06
2023-01-20T16:41:26.790Z,57.96
2023-01-20T16:43:54.703Z,57.66
2023-01-20T16:46:24.021Z,58.28
2023-01-20T16:48:51.593Z,58.13
2023-01-20T16:51:21.268Z,57.61
2023-01-20T16:53:48.794Z,57.68
2023-01-20T16:56:21.461Z,57.42
2023-01-20T16:58:50.139Z,57.82
2023-01-20T17:01:22.206Z,57.41
2023-01-20T17:03:50.701Z,56.88
2023-01-20T17:06:19.606Z,57.95
2023-01-20T17:08:48.427Z,58.06
2023-01-20T17:11:19.293Z,57.34
2023-01-20T17:13:46.765Z,57.73
2023-01-20T17:16:14.509Z,56.79
2023-01-20T17:18:45.250Z,56.90
2023-01-20T17:21:13.524Z,57.34
2023-01-20T17:23:41.668Z,57.24
2023-01-20T17:26:09.202Z,57.67
2023-01-20T17:28:36.520Z,57.99
2023-01-20T17:31:05.103Z,58.44
2023-01-20T17:33:32.618Z,58.50
2023-01-20T17:36:01.578Z,59.08
2023-01-20T17:38:29.577Z,59.69
2023-01-20T17:41:03.933Z,59.62
2023-01-20T17:43:32.933Z,59.55
2023-01-20T17:46:00.553Z,60.47
2023-01-20T17:48:28.002Z,60.86
2023-01-20T17:50:59.395Z,60.21
2023-01-20T17:53:26.997Z,61.06
2023-01-20T17:56:06.789Z,61.08
2023-01-20T17:58:39.361Z,61.34
2023-01-20T18:01:36.032Z,61.02
2023-01-20T18:04:06.474Z,61.28
2023-01-20T18:06:35.394Z,61.67
2023-01-20T18:09:02.890Z,61.70
2023-01-20T18:11:33.641Z,61.54
2023-01-20T18:14:01.822Z,61.47
2023-01-20T18:16:36.991Z,61.75
2023-01-20T18:19:04.553Z,61.66
2023-01-20T18:21:33.456Z,61.75
2023-01-20T18:24:01.149Z,61.86
2023-01-20T18:26:29.873Z,61.92
2023-01-20T18:28:58.224Z,61.86
2023-01-20T18:31:25.886Z,61.42
2023-01-20T18:33:54.849Z,61.48
2023-01-20T18:36:36.225Z,61.36
2023-01-20T18:39:08.149Z,61.30
2023-01-20T18:41:37.563Z,61.36
2023-01-20T18:44:05.582Z,61.52
2023-01-20T18:46:33.192Z,61.72
2023-01-20T18:49:00.602Z,61.97
2023-01-20T18:51:28.947Z,61.84
2023-01-20T18:54:04.931Z,62.32
2023-01-20T18:56:33.523Z,62.29
2023-01-20T18:59:01.113Z,62.83
2023-01-20T19:01:33.954Z,62.52
2023-01-20T19:04:02.127Z,62.73
2023-01-20T19:06:30.892Z,62.46
2023-01-20T19:08:58.822Z,62.96
2023-01-20T19:11:29.558Z,62.39
2023-01-20T19:13:57.097Z,62.99
2023-01-20T19:16:26.049Z,62.78
2023-01-20T19:18:54.711Z,62.00
2023-01-20T19:21:22.385Z,61.82
2023-01-20T19:23:53.819Z,61.62
2023-01-20T19:26:21.931Z,61.75
2023-01-20T19:28:55.277Z,61.58
2023-01-20T19:31:22.847Z,61.51
2023-01-20T19:33:50.304Z,61.19
2023-01-20T19:36:18.202Z,60.98
2023-01-20T19:38:45.670Z,61.19
2023-01-20T19:41:14.796Z,60.93
2023-01-20T19:43:42.236Z,60.97
2023-01-20T19:46:11.684Z,60.66
2023-01-20T19:48:39.095Z,61.30
2023-01-20T19:51:14.287Z,61.05
2023-01-20T19:53:42.212Z,61.16
2023-01-20T19:56:19.200Z,61.48
2023-01-20T19:58:47.519Z,60.89
2023-01-20T20:01:20.233Z,61.04
2023-01-20T20:03:48.002Z,60.99
2023-01-20T20:06:38.163Z,60.92
2023-01-20T20:09:19.461Z,60.56
2023-01-20T20:11:47.707Z,61.38
2023-01-20T20:14:16.502Z,61.40
2023-01-20T20:16:44.057Z,61.73
2023-01-20T20:19:12.881Z,61.61
2023-01-20T20:21:40.270Z,61.83
2023-01-20T20:24:08.040Z,61.93
2023-01-20T20:26:36.396Z,61.62
2023-01-20T20:29:05.117Z,61.81
2023-01-20T20:31:34.308Z,62.09
2023-01-20T20:34:02.078Z,62.56
2023-01-20T20:36:31.201Z,62.60
2023-01-20T20:38:59.307Z,63.07
2023-01-20T20:41:31.159Z,63.71
2023-01-20T20:43:59.497Z,63.87
2023-01-20T20:46:27.533Z,64.37
2023-01-20T20:49:02.296Z,64.65
2023-01-20T20:51:31.951Z,64.95
2023-01-20T20:54:00.444Z,65.29
2023-01-20T20:56:28.446Z,65.36
2023-01-20T20:59:01.976Z,65.80
2023-01-20T21:01:31.589Z,65.84
2023-01-20T21:04:00.640Z,66.40
2023-01-20T21:06:28.803Z,66.92
2023-01-20T21:08:56.206Z,67.02
2023-01-20T21:11:25.042Z,67.39
2023-01-20T21:13:52.527Z,67.61
2023-01-20T21:16:23.778Z,67.64
2023-01-20T21:18:52.404Z,68.05
2023-01-20T21:21:19.846Z,68.13
2023-01-20T21:23:54.306Z,68.75
2023-01-20T21:26:21.956Z,68.64
2023-01-20T21:28:49.451Z,68.70
2023-01-20T21:31:19.271Z,68.72
2023-01-20T21:33:46.910Z,68.89
2023-01-20T21:36:14.270Z,68.53
2023-01-20T21:38:43.080Z,68.90
2023-01-20T21:41:11.986Z,69.35
2023-01-20T21:43:59.416Z,69.87
2023-01-20T21:46:38.038Z,70.46
2023-01-20T21:49:25.112Z,71.18
2023-01-20T21:52:11.261Z,71.65
2023-01-20T21:54:40.665Z,71.52
2023-01-20T21:57:07.973Z,71.67
2023-01-20T21:59:35.321Z,71.72
2023-01-20T22:02:02.695Z,71.59
2023-01-20T22:04:30.212Z,71.72
2023-01-20T22:06:57.515Z,71.65
2023-01-20T22:09:24.920Z,71.25
2023-01-20T22:11:52.227Z,71.19
2023-01-20T22:14:19.626Z,71.24
2023-01-20T22:16:46.945Z,70.87
2023-01-20T22:19:14.446Z,71.30
2023-01-20T22:21:41.788Z,70.75
2023-01-20T22:24:09.693Z,70.98
2023-01-20T22:26:37.234Z,70.80
2023-01-20T22:29:04.585Z,70.88
2023-01-20T22:31:32.240Z,70.78
2023-01-20T22:34:04.159Z,70.66
2023-01-20T22:36:32.212Z,70.48
2023-01-20T22:38:59.585Z,70.37
2023-01-20T22:41:27.026Z,70.07
2023-01-20T22:43:55.482Z,70.21
2023-01-20T22:46:23.653Z,69.99
2023-01-20T22:48:50.990Z,69.91
2023-01-20T22:51:22.681Z,69.33
2023-01-20T22:53:50.210Z,69.24
2023-01-20T22:56:19.140Z,69.88
2023-01-20T22:58:46.680Z,70.12
2023-01-20T23:01:15.446Z,69.90
2023-01-20T23:03:43.080Z,69.71
2023-01-20T23:06:10.598Z,70.01
2023-01-20T23:08:38.102Z,69.77
2023-01-20T23:11:10.351Z,69.75
2023-01-20T23:13:38.769Z,69.87
2023-01-20T23:16:09.743Z,70.09
2023-01-20T23:18:37.508Z,70.09
2023-01-20T23:21:06.117Z,70.61
2023-01-20T23:23:33.501Z,70.64
2023-01-20T23:26:05.262Z,70.54
2023-01-20T23:28:32.762Z,70.44
2023-01-20T23:31:04.310Z,70.11
2023-01-20T23:33:31.862Z,70.50
2023-01-20T23:36:06.890Z,70.46
2023-01-20T23:38:34.376Z,69.99
2023-01-20T23:41:02.503Z,69.76
2023-01-20T23:43:30.771Z,69.51
2023-01-20T23:46:02.157Z,69.35
2023-01-20T23:48:29.693Z,69.50
2023-01-20T23:50:59.942Z,69.27
2023-01-20T23:53:28.213Z,69.68
2023-01-20T23:56:02.231Z,69.86
2023-01-20T23:58:29.721Z,69.66
